createdAt,value
2018-03-23T00:00:58.686Z,98226.48
2018-03-23T00:03:26.827Z,98224.36
2018-03-23T00:05:55.029Z,98223.36
2018-03-23T00:08:23.143Z,98224.27
2018-03-23T00:10:51.266Z,98223.36
2018-03-23T00:13:19.408Z,98219.63
2018-03-23T00:15:47.516Z,98221.93
2018-03-23T00:18:15.698Z,98215.34
2018-03-23T00:20:43.806Z,98216.67
2018-03-23T00:23:11.934Z,98210.32
2018-03-23T00:25:40.083Z,98214.96
2018-03-23T00:28:08.260Z,98213.55
2018-03-23T00:30:36.401Z,98206.05
2018-03-23T00:33:04.519Z,98205.79
2018-03-23T00:35:32.785Z,98196.75
2018-03-23T00:38:00.901Z,98197.48
2018-03-23T00:40:29.044Z,98197.19
2018-03-23T00:42:57.164Z,98192.56
2018-03-23T00:45:25.290Z,98191.55
2018-03-23T00:47:53.430Z,98188.12
2018-03-23T00:50:21.572Z,98191.66
2018-03-23T00:52:49.688Z,98194.83
2018-03-23T00:55:17.816Z,98200.52
2018-03-23T00:57:45.949Z,98197.88
2018-03-23T01:00:14.126Z,98202.02
2018-03-23T01:02:42.268Z,98197.26
2018-03-23T01:05:10.390Z,98195.02
2018-03-23T01:07:38.507Z,98198.16
2018-03-23T01:10:06.716Z,98192.20
2018-03-23T01:12:34.846Z,98193.21
2018-03-23T01:15:03.886Z,98191.58
2018-03-23T01:17:32.077Z,98181.03
2018-03-23T01:20:00.187Z,98185.88
2018-03-23T01:22:28.319Z,98185.05
2018-03-23T01:24:56.449Z,98179.68
2018-03-23T01:27:24.634Z,98184.02
2018-03-23T01:29:52.784Z,98177.34
2018-03-23T01:32:20.899Z,98181.33
2018-03-23T01:34:49.029Z,98168.45
2018-03-23T01:37:17.149Z,98166.13
2018-03-23T01:39:45.264Z,98160.17
2018-03-23T01:42:13.386Z,98162.72
2018-03-23T01:44:41.517Z,98154.27
2018-03-23T01:47:09.635Z,98152.77
2018-03-23T01:49:37.761Z,98160.09
2018-03-23T01:52:05.886Z,98158.87
2018-03-23T01:54:34.020Z,98156.14
2018-03-23T01:57:02.151Z,98142.96
2018-03-23T01:59:30.370Z,98147.08
2018-03-23T02:01:58.594Z,98142.72
2018-03-23T02:04:26.744Z,98138.56
2018-03-23T02:06:54.983Z,98135.64
2018-03-23T02:09:23.100Z,98132.61
2018-03-23T02:11:51.228Z,98129.55
2018-03-23T02:14:19.345Z,98125.83
2018-03-23T02:16:47.478Z,98128.33
2018-03-23T02:19:15.592Z,98123.22
2018-03-23T02:21:43.729Z,98118.70
2018-03-23T02:24:11.882Z,98123.06
2018-03-23T02:26:39.983Z,98120.11
2018-03-23T02:29:08.116Z,98118.30
2018-03-23T02:31:36.701Z,98110.63
2018-03-23T02:34:04.816Z,98115.31
2018-03-23T02:36:33.283Z,98107.26
2018-03-23T02:39:01.412Z,98105.63
2018-03-23T02:41:29.519Z,98100.18
2018-03-23T02:43:57.654Z,98099.42
2018-03-23T02:46:25.773Z,98096.22
2018-03-23T02:48:53.897Z,98099.34
2018-03-23T02:51:22.072Z,98095.52
2018-03-23T02:53:50.191Z,98095.66
2018-03-23T02:56:18.318Z,98085.03
2018-03-23T02:58:46.438Z,98083.31
2018-03-23T03:01:14.568Z,98082.88
2018-03-23T03:03:42.709Z,98082.56
2018-03-23T03:06:10.868Z,98079.98
2018-03-23T03:08:38.994Z,98081.44
2018-03-23T03:11:07.151Z,98081.34
2018-03-23T03:13:35.279Z,98078.20
2018-03-23T03:16:03.408Z,98066.42
2018-03-23T03:18:31.530Z,98069.89
2018-03-23T03:20:59.650Z,98067.41
2018-03-23T03:23:27.788Z,98070.94
2018-03-23T03:25:55.914Z,98069.58
2018-03-23T03:28:24.033Z,98075.48
2018-03-23T03:30:52.169Z,98064.72
2018-03-23T03:33:20.338Z,98067.81
2018-03-23T03:35:48.519Z,98065.98
2018-03-23T03:38:16.647Z,98071.63
2018-03-23T03:40:44.769Z,98065.08
2018-03-23T03:43:12.909Z,98063.70
2018-03-23T03:45:41.034Z,98061.12
2018-03-23T03:48:09.184Z,98054.84
2018-03-23T03:50:37.322Z,98044.63
2018-03-23T03:53:05.478Z,98067.59
2018-03-23T03:55:33.612Z,98061.55
2018-03-23T03:58:01.731Z,98061.94
2018-03-23T04:00:29.852Z,98063.64
2018-03-23T04:02:57.990Z,98061.73
2018-03-23T04:05:26.113Z,98061.97
2018-03-23T04:07:54.243Z,98057.16
2018-03-23T04:10:22.352Z,98058.18
2018-03-23T04:12:50.554Z,98053.46
2018-03-23T04:15:18.682Z,98062.22
2018-03-23T04:17:46.820Z,98056.21
2018-03-23T04:23:36.168Z,98051.34
2018-03-23T04:26:04.305Z,98045.39
2018-03-23T04:29:03.015Z,98048.03
2018-03-23T04:31:38.365Z,98034.06
2018-03-23T04:34:21.763Z,98043.27
2018-03-23T04:36:49.893Z,98031.83
2018-03-23T04:39:48.726Z,98039.41
2018-03-23T04:42:23.929Z,98021.60
2018-03-23T04:44:52.074Z,98029.22
2018-03-23T04:47:20.278Z,98025.55
2018-03-23T04:49:48.386Z,98015.28
2018-03-23T04:52:16.540Z,98009.26
2018-03-23T04:54:44.732Z,98004.61
2018-03-23T04:57:12.864Z,98009.93
2018-03-23T04:59:41.021Z,98005.92
2018-03-23T05:02:09.151Z,98002.38
2018-03-23T05:04:37.291Z,98001.63
2018-03-23T05:07:05.515Z,98002.03
2018-03-23T05:09:33.638Z,97997.92
2018-03-23T05:12:01.784Z,97992.17
2018-03-23T05:14:29.904Z,97986.38
2018-03-23T05:16:58.094Z,97983.59
2018-03-23T05:19:26.226Z,97982.28
2018-03-23T05:21:54.357Z,97977.84
2018-03-23T05:24:22.480Z,97974.20
2018-03-23T05:26:50.622Z,97974.16
2018-03-23T05:29:18.745Z,97973.40
2018-03-23T05:31:46.915Z,97961.58
2018-03-23T05:34:15.036Z,97961.09
2018-03-23T05:36:43.188Z,97963.76
2018-03-23T05:39:11.309Z,97957.94
2018-03-23T05:41:39.441Z,97961.89
2018-03-23T05:44:07.558Z,97961.41
2018-03-23T05:46:36.111Z,97964.17
2018-03-23T05:49:04.234Z,97959.08
2018-03-23T05:51:32.366Z,97958.68
2018-03-23T05:54:00.473Z,97960.22
2018-03-23T05:56:28.621Z,97954.55
2018-03-23T05:58:56.764Z,97960.63
2018-03-23T06:01:24.940Z,97959.16
2018-03-23T06:03:53.056Z,97958.75
2018-03-23T06:06:21.168Z,97960.83
2018-03-23T06:08:49.312Z,97957.61
2018-03-23T06:11:17.450Z,97961.77
2018-03-23T06:13:45.587Z,97958.58
2018-03-23T06:16:13.709Z,97953.08
2018-03-23T06:18:41.837Z,97967.02
2018-03-23T06:21:10.825Z,97960.50
2018-03-23T06:23:38.937Z,97955.05
2018-03-23T06:26:07.063Z,97954.58
2018-03-23T06:28:35.207Z,97949.27
2018-03-23T06:31:03.319Z,97947.05
2018-03-23T06:33:31.458Z,97943.04
2018-03-23T06:35:59.636Z,97947.41
2018-03-23T06:38:27.770Z,97944.30
2018-03-23T06:40:55.980Z,97949.84
2018-03-23T06:43:24.110Z,97941.14
2018-03-23T06:45:52.237Z,97943.98
2018-03-23T06:48:20.376Z,97947.06
2018-03-23T06:50:48.499Z,97944.09
2018-03-23T06:53:16.672Z,97947.30
2018-03-23T06:55:44.936Z,97936.96
2018-03-23T06:58:13.098Z,97950.94
2018-03-23T07:00:41.226Z,97947.96
2018-03-23T07:03:09.388Z,97952.29
2018-03-23T07:05:37.518Z,97952.12
2018-03-23T07:08:05.638Z,97948.58
2018-03-23T07:10:33.785Z,97951.04
2018-03-23T07:13:01.893Z,97946.82
2018-03-23T07:15:30.030Z,97948.81
2018-03-23T07:17:58.193Z,97946.22
2018-03-23T07:20:26.372Z,97953.22
2018-03-23T07:22:54.488Z,97949.56
2018-03-23T07:25:22.680Z,97948.07
2018-03-23T07:27:51.280Z,97949.39
2018-03-23T07:30:19.416Z,97955.72
2018-03-23T07:32:47.540Z,97950.23
2018-03-23T07:35:15.676Z,97958.02
2018-03-23T07:37:43.807Z,97951.52
2018-03-23T07:40:11.935Z,97954.30
2018-03-23T07:42:40.499Z,97957.07
2018-03-23T07:45:08.632Z,97962.19
2018-03-23T07:47:36.763Z,97969.80
2018-03-23T07:50:04.896Z,97975.41
2018-03-23T07:52:33.058Z,97973.83
2018-03-23T07:55:01.195Z,97980.32
2018-03-23T07:57:29.340Z,97984.66
2018-03-23T07:59:57.486Z,97985.27
2018-03-23T08:02:25.651Z,97984.55
2018-03-23T08:04:53.787Z,97983.84
2018-03-23T08:07:21.942Z,97990.95
2018-03-23T08:09:50.924Z,97984.65
2018-03-23T08:12:19.046Z,97984.41
2018-03-23T08:14:47.200Z,97990.53
2018-03-23T08:17:15.604Z,97986.38
2018-03-23T08:19:43.741Z,97987.09
2018-03-23T08:22:11.877Z,97984.31
2018-03-23T08:24:40.013Z,97983.94
2018-03-23T08:27:08.193Z,97978.22
2018-03-23T08:29:36.327Z,97970.22
2018-03-23T08:32:04.471Z,97969.91
2018-03-23T08:34:32.583Z,97969.97
2018-03-23T08:37:00.704Z,97963.27
2018-03-23T08:39:28.824Z,97962.81
2018-03-23T08:41:56.960Z,97969.65
2018-03-23T08:44:25.148Z,97965.80
2018-03-23T08:46:53.278Z,97965.69
2018-03-23T08:49:21.397Z,97956.73
2018-03-23T08:51:49.515Z,97955.61
2018-03-23T08:54:17.674Z,97954.80
2018-03-23T08:56:45.779Z,97951.75
2018-03-23T08:59:13.952Z,97957.87
2018-03-23T09:01:42.068Z,97954.25
2018-03-23T09:04:10.318Z,97947.57
2018-03-23T09:06:38.498Z,97948.63
2018-03-23T09:09:06.748Z,97949.51
2018-03-23T09:11:34.886Z,97950.42
2018-03-23T09:14:02.999Z,97946.22
2018-03-23T09:16:31.113Z,97942.20
2018-03-23T09:18:59.227Z,97934.00
2018-03-23T09:21:27.347Z,97932.80
2018-03-23T09:23:55.475Z,97938.28
2018-03-23T09:26:23.592Z,97933.01
2018-03-23T09:28:51.715Z,97923.01
2018-03-23T09:31:19.840Z,97916.67
2018-03-23T09:33:47.972Z,97921.29
2018-03-23T09:36:16.092Z,97918.80
2018-03-23T09:38:44.202Z,97904.42
2018-03-23T09:41:12.385Z,97912.70
2018-03-23T09:43:40.507Z,97914.37
2018-03-23T09:46:08.643Z,97909.58
2018-03-23T09:48:36.802Z,97904.02
2018-03-23T09:51:04.903Z,97896.16
2018-03-23T09:53:33.047Z,97899.63
2018-03-23T09:56:01.176Z,97894.89
2018-03-23T09:58:29.312Z,97891.83
2018-03-23T10:00:57.440Z,97892.63
2018-03-23T10:03:25.570Z,97904.34
2018-03-23T10:05:53.710Z,97898.77
2018-03-23T10:08:21.838Z,97892.17
2018-03-23T10:10:49.971Z,97882.39
2018-03-23T10:13:18.163Z,97880.77
2018-03-23T10:15:46.335Z,97882.48
2018-03-23T10:18:14.451Z,97882.09
2018-03-23T10:20:42.672Z,97872.00
2018-03-23T10:23:10.747Z,97873.16
2018-03-23T10:25:38.860Z,97876.78
2018-03-23T10:28:06.990Z,97873.16
2018-03-23T10:30:35.144Z,97869.73
2018-03-23T10:33:03.266Z,97871.34
2018-03-23T10:35:31.432Z,97869.23
2018-03-23T10:37:59.519Z,97858.86
2018-03-23T10:40:27.635Z,97858.63
2018-03-23T10:42:55.754Z,97849.88
2018-03-23T10:45:23.875Z,97846.29
2018-03-23T10:47:52.004Z,97845.70
2018-03-23T10:50:20.122Z,97848.87
2018-03-23T10:52:48.264Z,97849.97
2018-03-23T10:55:16.453Z,97841.14
2018-03-23T10:57:44.561Z,97840.98
2018-03-23T11:00:13.558Z,97841.47
2018-03-23T11:02:56.729Z,97833.15
2018-03-23T11:05:24.837Z,97833.11
2018-03-23T11:07:53.066Z,97837.72
2018-03-23T11:10:21.193Z,97833.95
2018-03-23T11:12:49.351Z,97833.77
2018-03-23T11:15:17.488Z,97827.48
2018-03-23T11:17:45.679Z,97825.64
2018-03-23T11:20:13.890Z,97824.91
2018-03-23T11:22:42.011Z,97824.36
2018-03-23T11:25:10.207Z,97827.73
2018-03-23T11:27:38.353Z,97826.01
2018-03-23T11:30:06.527Z,97834.36
2018-03-23T11:32:34.708Z,97836.80
2018-03-23T11:35:02.872Z,97823.11
2018-03-23T11:37:31.024Z,97823.07
2018-03-23T11:39:59.152Z,97819.47
2018-03-23T11:42:27.292Z,97824.47
2018-03-23T11:44:55.426Z,97820.34
2018-03-23T11:47:23.566Z,97815.97
2018-03-23T11:49:51.715Z,97801.31
2018-03-23T11:52:19.833Z,97800.94
2018-03-23T11:54:47.987Z,97799.77
2018-03-23T11:57:16.875Z,97800.50
2018-03-23T11:59:45.046Z,97790.39
2018-03-23T12:02:13.186Z,97796.53
2018-03-23T12:04:41.372Z,97787.51
2018-03-23T12:07:09.508Z,97781.01
2018-03-23T12:09:37.685Z,97782.11
2018-03-23T12:12:05.879Z,97771.45
2018-03-23T12:14:34.043Z,97769.13
2018-03-23T12:17:02.216Z,97770.34
2018-03-23T12:19:31.163Z,97759.27
2018-03-23T12:21:59.343Z,97757.77
2018-03-23T12:24:27.471Z,97755.33
2018-03-23T12:26:56.254Z,97755.63
2018-03-23T12:29:25.309Z,97751.32
2018-03-23T12:31:53.542Z,97754.59
2018-03-23T12:34:21.671Z,97747.63
2018-03-23T12:36:49.838Z,97749.02
2018-03-23T12:39:18.023Z,97744.44
2018-03-23T12:41:46.163Z,97744.06
2018-03-23T12:44:14.336Z,97743.95
2018-03-23T12:46:42.478Z,97737.30
2018-03-23T12:49:11.153Z,97689.66
2018-03-23T12:51:39.669Z,97726.68
2018-03-23T12:54:08.220Z,97722.70
2018-03-23T12:56:36.386Z,97723.92
2018-03-23T12:59:05.428Z,97717.14
2018-03-23T13:01:38.184Z,97713.93
2018-03-23T13:04:06.894Z,97713.28
2018-03-23T13:06:35.010Z,97712.70
2018-03-23T13:09:03.166Z,97705.84
2018-03-23T13:11:31.286Z,97699.05
2018-03-23T13:13:59.786Z,97709.41
2018-03-23T13:16:27.915Z,97704.22
2018-03-23T13:18:59.347Z,97712.66
2018-03-23T13:21:28.275Z,97712.00
2018-03-23T13:24:03.419Z,97706.81
2018-03-23T13:26:31.573Z,97703.67
2018-03-23T13:28:59.699Z,97701.28
2018-03-23T13:31:27.893Z,97701.77
2018-03-23T13:33:56.024Z,97701.00
2018-03-23T13:36:24.232Z,97690.80
2018-03-23T13:38:52.413Z,97690.68
2018-03-23T13:41:20.530Z,97693.63
2018-03-23T13:43:48.732Z,97686.42
2018-03-23T13:46:17.475Z,97692.33
2018-03-23T13:48:45.831Z,97688.31
2018-03-23T13:51:13.971Z,97678.35
2018-03-23T13:53:42.153Z,97675.92
2018-03-23T13:56:10.321Z,97670.16
2018-03-23T13:58:43.967Z,97672.23
2018-03-23T14:01:17.673Z,97667.50
2018-03-23T14:03:45.843Z,97664.13
2018-03-23T14:06:13.987Z,97660.70
2018-03-23T14:08:42.136Z,97662.84
2018-03-23T14:11:10.292Z,97669.08
2018-03-23T14:13:38.427Z,97666.18
2018-03-23T14:16:06.678Z,97663.32
2018-03-23T14:18:34.848Z,97670.63
2018-03-23T14:21:02.957Z,97671.92
2018-03-23T14:23:31.193Z,97671.56
2018-03-23T14:25:59.340Z,97671.61
2018-03-23T14:28:27.485Z,97677.28
2018-03-23T14:30:55.642Z,97675.34
2018-03-23T14:33:23.828Z,97670.06
2018-03-23T14:35:52.249Z,97668.41
2018-03-23T14:38:20.438Z,97671.82
2018-03-23T14:40:48.557Z,97664.80
2018-03-23T14:43:16.703Z,97660.41
2018-03-23T14:45:44.843Z,97658.63
2018-03-23T14:48:12.977Z,97660.54
2018-03-23T14:50:42.132Z,97654.84
2018-03-23T14:53:10.270Z,97658.30
2018-03-23T14:55:38.944Z,97659.80
2018-03-23T14:58:07.573Z,97659.80
2018-03-23T15:00:35.700Z,97647.02
2018-03-23T15:03:03.827Z,97666.23
2018-03-23T15:05:32.037Z,97666.78
2018-03-23T15:08:01.234Z,97666.84
2018-03-23T15:10:29.386Z,97665.86
2018-03-23T15:12:57.520Z,97665.91
2018-03-23T15:15:25.696Z,97656.64
2018-03-23T15:17:53.906Z,97661.50
2018-03-23T15:20:22.046Z,97654.84
2018-03-23T15:22:50.200Z,97656.13
2018-03-23T15:25:18.363Z,97652.13
2018-03-23T15:27:46.499Z,97648.81
2018-03-23T15:30:14.635Z,97653.53
2018-03-23T15:32:42.775Z,97658.16
2018-03-23T15:35:10.956Z,97657.91
2018-03-23T15:37:39.093Z,97656.95
2018-03-23T15:40:07.263Z,97650.04
2018-03-23T15:42:35.393Z,97664.38
2018-03-23T15:45:03.562Z,97660.41
2018-03-23T15:47:31.685Z,97668.39
2018-03-23T15:49:59.831Z,97665.89
2018-03-23T15:52:28.007Z,97667.99
2018-03-23T15:54:56.141Z,97668.11
2018-03-23T15:57:24.302Z,97664.13
2018-03-23T15:59:52.425Z,97662.18
2018-03-23T16:02:20.567Z,97667.07
2018-03-23T16:04:50.761Z,97664.98
2018-03-23T16:07:18.899Z,97662.92
2018-03-23T16:09:47.132Z,97666.15
2018-03-23T16:12:15.328Z,97665.78
2018-03-23T16:14:43.546Z,97666.59
2018-03-23T16:17:11.716Z,97670.56
2018-03-23T16:19:39.823Z,97665.93
2018-03-23T16:22:08.002Z,97667.37
2018-03-23T16:24:38.127Z,97666.48
2018-03-23T16:27:06.470Z,97664.02
2018-03-23T16:29:34.634Z,97661.96
2018-03-23T16:32:02.824Z,97660.89
2018-03-23T16:34:30.927Z,97652.36
2018-03-23T16:36:59.095Z,97659.46
2018-03-23T16:39:27.269Z,97670.38
2018-03-23T16:41:56.599Z,97665.04
2018-03-23T16:44:24.742Z,97662.16
2018-03-23T16:46:52.884Z,97660.73
2018-03-23T16:49:21.074Z,97656.23
2018-03-23T16:51:49.188Z,97661.81
2018-03-23T16:54:17.344Z,97666.14
2018-03-23T16:56:45.488Z,97665.36
2018-03-23T16:59:13.663Z,97669.17
2018-03-23T17:01:42.617Z,97669.88
2018-03-23T17:04:10.771Z,97668.75
2018-03-23T17:06:39.023Z,97666.80
2018-03-23T17:09:07.908Z,97663.28
2018-03-23T17:11:36.026Z,97670.31
2018-03-23T17:14:04.192Z,97669.20
2018-03-23T17:16:32.324Z,97661.80
2018-03-23T17:19:00.472Z,97665.61
2018-03-23T17:21:28.595Z,97663.64
2018-03-23T17:23:56.751Z,97660.80
2018-03-23T17:26:25.711Z,97666.69
2018-03-23T17:28:54.036Z,97664.45
2018-03-23T17:31:22.188Z,97663.39
2018-03-23T17:33:50.325Z,97658.82
2018-03-23T17:36:18.560Z,97656.23
2018-03-23T17:38:46.697Z,97661.17
2018-03-23T17:41:19.483Z,97652.48
2018-03-23T17:43:47.854Z,97661.45
2018-03-23T17:46:15.992Z,97657.73
2018-03-23T17:48:44.105Z,97660.48
2018-03-23T17:51:12.268Z,97661.76
2018-03-23T17:53:40.430Z,97657.95
2018-03-23T17:56:08.548Z,97663.94
2018-03-23T17:58:36.688Z,97662.72
2018-03-23T18:01:04.838Z,97663.02
2018-03-23T18:03:32.983Z,97672.89
2018-03-23T18:06:01.123Z,97673.06
2018-03-23T18:08:29.243Z,97672.25
2018-03-23T18:10:57.372Z,97674.05
2018-03-23T18:13:25.632Z,97674.97
2018-03-23T18:15:53.760Z,97671.10
2018-03-23T18:18:21.908Z,97670.50
2018-03-23T18:20:50.024Z,97673.19
2018-03-23T18:23:18.217Z,97671.05
2018-03-23T18:25:46.451Z,97667.20
2018-03-23T18:28:14.562Z,97669.13
2018-03-23T18:30:42.696Z,97677.16
2018-03-23T18:33:10.823Z,97674.45
2018-03-23T18:35:38.939Z,97679.30
2018-03-23T18:38:07.672Z,97672.75
2018-03-23T18:40:35.817Z,97677.98
2018-03-23T18:43:03.988Z,97676.72
2018-03-23T18:45:32.159Z,97678.09
2018-03-23T18:48:00.269Z,97675.74
2018-03-23T18:50:28.399Z,97678.34
2018-03-23T18:52:56.550Z,97674.27
2018-03-23T18:55:24.727Z,97670.88
2018-03-23T18:57:52.931Z,97676.78
2018-03-23T19:00:21.069Z,97674.89
2018-03-23T19:02:49.196Z,97676.61
2018-03-23T19:05:17.340Z,97677.48
2018-03-23T19:07:45.596Z,97673.73
2018-03-23T19:10:13.750Z,97675.59
2018-03-23T19:12:41.908Z,97677.95
2018-03-23T19:15:10.417Z,97684.14
2018-03-23T19:17:38.972Z,97675.25
2018-03-23T19:20:07.111Z,97679.84
2018-03-23T19:22:35.243Z,97682.21
2018-03-23T19:25:03.405Z,97684.34
2018-03-23T19:27:31.575Z,97692.27
2018-03-23T19:29:59.706Z,97682.48
2018-03-23T19:32:31.036Z,97679.06
2018-03-23T19:35:00.397Z,97690.54
2018-03-23T19:37:44.724Z,97682.42
2018-03-23T19:40:15.955Z,97688.41
2018-03-23T19:42:44.085Z,97685.88
2018-03-23T19:45:12.269Z,97680.95
2018-03-23T19:47:40.525Z,97684.61
2018-03-23T19:50:09.744Z,97679.62
2018-03-23T19:52:37.935Z,97677.09
2018-03-23T19:55:06.156Z,97672.32
2018-03-23T19:57:34.385Z,97675.61
2018-03-23T20:00:02.512Z,97679.28
2018-03-23T20:02:30.693Z,97671.09
2018-03-23T20:04:58.844Z,97670.91
2018-03-23T20:07:27.338Z,97661.05
2018-03-23T20:09:55.485Z,97674.70
2018-03-23T20:12:24.447Z,97667.39
2018-03-23T20:14:52.603Z,97674.31
2018-03-23T20:17:26.237Z,97675.86
2018-03-23T20:19:54.395Z,97674.34
2018-03-23T20:22:22.527Z,97668.19
2018-03-23T20:24:50.835Z,97670.27
2018-03-23T20:27:24.510Z,97664.13
2018-03-23T20:29:52.650Z,97666.88
2018-03-23T20:32:26.363Z,97663.94
2018-03-23T20:34:54.621Z,97666.31
2018-03-23T20:37:23.615Z,97667.49
2018-03-23T20:39:51.764Z,97670.83
2018-03-23T20:42:19.919Z,97663.53
2018-03-23T20:44:48.046Z,97664.34
2018-03-23T20:47:16.154Z,97666.86
2018-03-23T20:49:44.279Z,97671.59
2018-03-23T20:52:12.405Z,97665.90
2018-03-23T20:54:40.529Z,97655.95
2018-03-23T20:57:08.640Z,97664.28
2018-03-23T20:59:36.755Z,97662.91
2018-03-23T21:02:04.887Z,97663.53
2018-03-23T21:04:33.153Z,97656.88
2018-03-23T21:07:01.292Z,97654.48
2018-03-23T21:09:29.403Z,97654.30
2018-03-23T21:11:57.532Z,97654.24
2018-03-23T21:14:25.655Z,97651.84
2018-03-23T21:16:53.778Z,97642.05
2018-03-23T21:19:21.945Z,97638.19
2018-03-23T21:21:50.069Z,97638.59
2018-03-23T21:24:18.217Z,97638.81
2018-03-23T21:26:46.361Z,97634.84
2018-03-23T21:29:14.482Z,97638.55
2018-03-23T21:31:42.607Z,97638.03
2018-03-23T21:34:10.748Z,97632.75
2018-03-23T21:36:38.877Z,97636.58
2018-03-23T21:39:07.100Z,97636.58
2018-03-23T21:41:35.265Z,97637.63
2018-03-23T21:44:03.435Z,97640.27
2018-03-23T21:46:33.177Z,97639.16
2018-03-23T21:49:01.311Z,97642.31
2018-03-23T21:51:29.428Z,97636.88
2018-03-23T21:53:57.556Z,97634.08
2018-03-23T21:56:25.679Z,97636.94
2018-03-23T21:58:53.808Z,97634.95
2018-03-23T22:01:21.951Z,97635.56
2018-03-23T22:03:50.076Z,97639.52
2018-03-23T22:06:18.195Z,97640.33
2018-03-23T22:08:46.323Z,97639.23
2018-03-23T22:11:14.462Z,97635.41
2018-03-23T22:13:42.592Z,97640.90
2018-03-23T22:16:10.707Z,97632.31
2018-03-23T22:18:38.839Z,97635.86
2018-03-23T22:21:07.036Z,97637.30
2018-03-23T22:23:36.192Z,97627.24
2018-03-23T22:26:04.329Z,97628.45
2018-03-23T22:28:32.444Z,97628.97
2018-03-23T22:31:00.668Z,97626.73
2018-03-23T22:33:28.796Z,97624.09
2018-03-23T22:35:56.917Z,97628.30
2018-03-23T22:38:25.041Z,97623.75
2018-03-23T22:40:53.167Z,97625.82
2018-03-23T22:43:21.282Z,97621.19
2018-03-23T22:45:49.411Z,97626.06
2018-03-23T22:48:17.564Z,97632.88
2018-03-23T22:50:45.793Z,97626.63
2018-03-23T22:53:13.956Z,97631.34
2018-03-23T22:55:42.296Z,97621.87
2018-03-23T22:58:10.413Z,97625.38
2018-03-23T23:00:38.921Z,97620.95
2018-03-23T23:03:07.654Z,97620.28
2018-03-23T23:05:35.909Z,97619.37
2018-03-23T23:08:04.082Z,97615.33
2018-03-23T23:10:32.660Z,97613.69
2018-03-23T23:13:01.989Z,97608.72
2018-03-23T23:15:30.739Z,97612.88
2018-03-23T23:18:00.327Z,97613.09
2018-03-23T23:20:31.055Z,97608.35
2018-03-23T23:22:59.490Z,97611.91
2018-03-23T23:25:28.153Z,97607.66
2018-03-23T23:27:56.254Z,97608.97
2018-03-23T23:30:24.383Z,97611.09
2018-03-23T23:32:52.541Z,97613.73
2018-03-23T23:35:20.694Z,97606.48
2018-03-23T23:37:48.823Z,97606.09
2018-03-23T23:40:18.167Z,97603.98
2018-03-23T23:42:50.280Z,97604.39
2018-03-23T23:45:19.244Z,97595.77
2018-03-23T23:47:48.199Z,97600.65
2018-03-23T23:50:17.197Z,97595.61
2018-03-23T23:52:45.344Z,97598.77
2018-03-23T23:55:13.751Z,97593.89
2018-03-23T23:57:42.270Z,97595.88
